sensor_id;sensor_type;location;lat;lon;timestamp;pressure;altitude;pressure_sealevel;temperature;humidity
21863;BME280;11096;51.338;12.524;2022-09-09T00:01:57;99708.72;;;13.75;nan
21863;BME280;11096;51.338;12.524;2022-09-09T00:04:33;99693.84;;;13.66;nan
21863;BME280;11096;51.338;12.524;2022-09-09T00:07:34;99699.25;;;13.74;nan
21863;BME280;11096;51.338;12.524;2022-09-09T00:16:00;99700.34;;;13.81;nan
21863;BME280;11096;51.338;12.524;2022-09-09T00:18:41;99707.06;;;13.74;nan
21863;BME280;11096;51.338;12.524;2022-09-09T00:21:13;99702.53;;;13.76;nan
21863;BME280;11096;51.338;12.524;2022-09-09T00:23:45;99710.22;;;13.68;nan
21863;BME280;11096;51.338;12.524;2022-09-09T00:26:24;99708.56;;;13.67;nan
21863;BME280;11096;51.338;12.524;2022-09-09T00:31:32;99704.97;;;13.58;nan
21863;BME280;11096;51.338;12.524;2022-09-09T00:34:02;99698.13;;;13.67;nan
21863;BME280;11096;51.338;12.524;2022-09-09T00:36:29;99690.41;;;13.56;nan
21863;BME280;11096;51.338;12.524;2022-09-09T00:39:01;99690.56;;;13.54;nan
21863;BME280;11096;51.338;12.524;2022-09-09T00:41:50;99696.75;;;13.53;nan
21863;BME280;11096;51.338;12.524;2022-09-09T00:44:30;99694.81;;;13.45;nan
21863;BME280;11096;51.338;12.524;2022-09-09T00:50:05;99700.59;;;13.49;nan
21863;BME280;11096;51.338;12.524;2022-09-09T00:52:47;99694.81;;;13.45;nan
21863;BME280;11096;51.338;12.524;2022-09-09T00:55:27;99693.69;;;13.38;nan
21863;BME280;11096;51.338;12.524;2022-09-09T00:57:57;99688.63;;;13.46;nan
21863;BME280;11096;51.338;12.524;2022-09-09T01:00:42;99691.50;;;13.43;nan
21863;BME280;11096;51.338;12.524;2022-09-09T01:03:37;99692.88;;;13.47;nan
21863;BME280;11096;51.338;12.524;2022-09-09T01:06:55;99688.19;;;13.41;nan
21863;BME280;11096;51.338;12.524;2022-09-09T01:09:29;99689.03;;;13.42;nan
21863;BME280;11096;51.338;12.524;2022-09-09T01:14:40;99701.53;;;13.38;nan
21863;BME280;11096;51.338;12.524;2022-09-09T01:27:39;99694.53;;;13.48;nan
21863;BME280;11096;51.338;12.524;2022-09-09T01:30:11;99683.28;;;13.48;nan
21863;BME280;11096;51.338;12.524;2022-09-09T01:32:41;99686.03;;;13.46;nan
21863;BME280;11096;51.338;12.524;2022-09-09T01:37:55;99685.19;;;13.46;nan
21863;BME280;11096;51.338;12.524;2022-09-09T01:40:21;99686.03;;;13.46;nan
21863;BME280;11096;51.338;12.524;2022-09-09T01:42:47;99687.25;;;13.42;nan
21863;BME280;11096;51.338;12.524;2022-09-09T01:45:12;99688.47;;;13.38;nan
21863;BME280;11096;51.338;12.524;2022-09-09T01:47:38;99692.63;;;13.50;nan
21863;BME280;11096;51.338;12.524;2022-09-09T01:50:04;99688.09;;;13.52;nan
21863;BME280;11096;51.338;12.524;2022-09-09T01:52:30;99685.47;;;13.52;nan
21863;BME280;11096;51.338;12.524;2022-09-09T01:54:57;99681.88;;;13.53;nan
21863;BME280;11096;51.338;12.524;2022-09-09T02:00:19;99684.25;;;13.57;nan
21863;BME280;11096;51.338;12.524;2022-09-09T02:05:37;99689.59;;;13.55;nan
21863;BME280;11096;51.338;12.524;2022-09-09T02:10:50;99684.66;;;13.62;nan
21863;BME280;11096;51.338;12.524;2022-09-09T02:13:20;99688.50;;;13.58;nan
21863;BME280;11096;51.338;12.524;2022-09-09T02:15:58;99690.66;;;13.33;nan
21863;BME280;11096;51.338;12.524;2022-09-09T02:18:30;99684.22;;;13.37;nan
21863;BME280;11096;51.338;12.524;2022-09-09T02:20:59;99687.38;;;13.41;nan
21863;BME280;11096;51.338;12.524;2022-09-09T02:23:24;99695.09;;;13.42;nan
21863;BME280;11096;51.338;12.524;2022-09-09T02:25:51;99692.34;;;13.34;nan
21863;BME280;11096;51.338;12.524;2022-09-09T02:28:21;99693.88;;;13.16;nan
21863;BME280;11096;51.338;12.524;2022-09-09T02:30:49;99702.53;;;12.76;nan
21863;BME280;11096;51.338;12.524;2022-09-09T02:33:23;99705.50;;;13.02;nan
21863;BME280;11096;51.338;12.524;2022-09-09T02:35:50;99704.59;;;13.13;nan
21863;BME280;11096;51.338;12.524;2022-09-09T02:38:17;99698.84;;;13.19;nan
21863;BME280;11096;51.338;12.524;2022-09-09T02:40:42;99700.50;;;13.20;nan
21863;BME280;11096;51.338;12.524;2022-09-09T02:43:08;99703.13;;;13.20;nan
21863;BME280;11096;51.338;12.524;2022-09-09T02:45:42;99695.28;;;13.20;nan
21863;BME280;11096;51.338;12.524;2022-09-09T02:48:21;99696.66;;;13.24;nan
21863;BME280;11096;51.338;12.524;2022-09-09T02:51:04;99692.38;;;13.13;nan
21863;BME280;11096;51.338;12.524;2022-09-09T02:53:50;99687.56;;;13.08;nan
21863;BME280;11096;51.338;12.524;2022-09-09T02:56:25;99696.50;;;13.16;nan
21863;BME280;11096;51.338;12.524;2022-09-09T02:58:53;99698.13;;;13.17;nan
21863;BME280;11096;51.338;12.524;2022-09-09T03:01:20;99693.63;;;13.19;nan
21863;BME280;11096;51.338;12.524;2022-09-09T03:03:45;99696.66;;;13.24;nan
21863;BME280;11096;51.338;12.524;2022-09-09T03:06:11;99697.09;;;13.29;nan
21863;BME280;11096;51.338;12.524;2022-09-09T03:08:38;99690.66;;;13.33;nan
21863;BME280;11096;51.338;12.524;2022-09-09T03:11:03;99697.56;;;13.34;nan
21863;BME280;11096;51.338;12.524;2022-09-09T03:13:29;99703.19;;;13.39;nan
21863;BME280;11096;51.338;12.524;2022-09-09T03:15:54;99703.84;;;13.41;nan
21863;BME280;11096;51.338;12.524;2022-09-09T03:18:20;99707.16;;;13.43;nan
21863;BME280;11096;51.338;12.524;2022-09-09T03:20:46;99703.84;;;13.41;nan
21863;BME280;11096;51.338;12.524;2022-09-09T03:23:13;99701.09;;;13.33;nan
21863;BME280;11096;51.338;12.524;2022-09-09T03:25:39;99700.16;;;13.34;nan
21863;BME280;11096;51.338;12.524;2022-09-09T03:28:04;99696.69;;;13.34;nan
21863;BME280;11096;51.338;12.524;2022-09-09T03:30:30;99704.41;;;13.35;nan
21863;BME280;11096;51.338;12.524;2022-09-09T03:32:55;99693.84;;;13.37;nan
21863;BME280;11096;51.338;12.524;2022-09-09T03:35:21;99697.78;;;13.31;nan
21863;BME280;11096;51.338;12.524;2022-09-09T03:37:46;99693.28;;;13.33;nan
21863;BME280;11096;51.338;12.524;2022-09-09T03:40:12;99698.38;;;13.35;nan
21863;BME280;11096;51.338;12.524;2022-09-09T03:42:38;99700.97;;;13.35;nan
21863;BME280;11096;51.338;12.524;2022-09-09T03:45:05;99699.47;;;13.32;nan
21863;BME280;11096;51.338;12.524;2022-09-09T03:47:31;99691.75;;;13.30;nan
21863;BME280;11096;51.338;12.524;2022-09-09T03:49:57;99685.28;;;13.25;nan
21863;BME280;11096;51.338;12.524;2022-09-09T03:52:22;99687.63;;;13.28;nan
21863;BME280;11096;51.338;12.524;2022-09-09T03:54:50;99680.22;;;13.33;nan
21863;BME280;11096;51.338;12.524;2022-09-09T03:57:16;99695.56;;;13.26;nan
21863;BME280;11096;51.338;12.524;2022-09-09T03:59:42;99699.25;;;13.24;nan
21863;BME280;11096;51.338;12.524;2022-09-09T04:02:08;99697.31;;;13.16;nan
21863;BME280;11096;51.338;12.524;2022-09-09T04:04:34;99686.47;;;13.21;nan
21863;BME280;11096;51.338;12.524;2022-09-09T04:06:59;99686.75;;;13.18;nan
21863;BME280;11096;51.338;12.524;2022-09-09T04:09:24;99687.28;;;13.11;nan
21863;BME280;11096;51.338;12.524;2022-09-09T04:11:50;99692.50;;;13.11;nan
21863;BME280;11096;51.338;12.524;2022-09-09T04:14:15;99695.94;;;13.12;nan
21863;BME280;11096;51.338;12.524;2022-09-09T04:16:41;99692.53;;;13.21;nan
21863;BME280;11096;51.338;12.524;2022-09-09T04:19:10;99690.44;;;13.05;nan
21863;BME280;11096;51.338;12.524;2022-09-09T04:21:37;99691.25;;;13.06;nan
21863;BME280;11096;51.338;12.524;2022-09-09T04:24:05;99690.13;;;12.99;nan
21863;BME280;11096;51.338;12.524;2022-09-09T04:26:30;99694.69;;;13.06;nan
21863;BME280;11096;51.338;12.524;2022-09-09T04:28:55;99695.81;;;13.14;nan
21863;BME280;11096;51.338;12.524;2022-09-09T04:31:22;99698.25;;;13.05;nan
21863;BME280;11096;51.338;12.524;2022-09-09T04:33:51;99704.88;;;13.09;nan
21863;BME280;11096;51.338;12.524;2022-09-09T04:36:18;99704.25;;;12.96;nan
21863;BME280;11096;51.338;12.524;2022-09-09T04:38:44;99701.50;;;12.88;nan
21863;BME280;11096;51.338;12.524;2022-09-09T04:41:10;99708.25;;;13.00;nan
21863;BME280;11096;51.338;12.524;2022-09-09T04:43:37;99704.69;;;13.01;nan
21863;BME280;11096;51.338;12.524;2022-09-09T04:46:03;99701.56;;;13.07;nan
21863;BME280;11096;51.338;12.524;2022-09-09T04:48:28;99705.41;;;13.13;nan
21863;BME280;11096;51.338;12.524;2022-09-09T04:50:58;99704.91;;;13.19;nan
21863;BME280;11096;51.338;12.524;2022-09-09T04:53:24;99705.72;;;13.20;nan
21863;BME280;11096;51.338;12.524;2022-09-09T04:55:51;99708.06;;;13.23;nan
21863;BME280;11096;51.338;12.524;2022-09-09T04:58:16;99704.25;;;13.27;nan
21863;BME280;11096;51.338;12.524;2022-09-09T05:00:42;99707.13;;;13.34;nan
21863;BME280;11096;51.338;12.524;2022-09-09T05:03:07;99702.78;;;13.34;nan
21863;BME280;11096;51.338;12.524;2022-09-09T05:05:34;99702.91;;;13.42;nan
21863;BME280;11096;51.338;12.524;2022-09-09T05:08:04;99711.03;;;13.49;nan
21863;BME280;11096;51.338;12.524;2022-09-09T05:10:31;99707.34;;;13.51;nan
21863;BME280;11096;51.338;12.524;2022-09-09T05:12:56;99703.06;;;13.50;nan
21863;BME280;11096;51.338;12.524;2022-09-09T05:15:22;99707.75;;;13.57;nan
21863;BME280;11096;51.338;12.524;2022-09-09T05:17:47;99709.81;;;13.63;nan
21863;BME280;11096;51.338;12.524;2022-09-09T05:20:13;99711.88;;;13.69;nan
21863;BME280;11096;51.338;12.524;2022-09-09T05:22:38;99707.06;;;13.74;nan
21863;BME280;11096;51.338;12.524;2022-09-09T05:25:04;99714.50;;;13.79;nan
21863;BME280;11096;51.338;12.524;2022-09-09T05:27:29;99720.97;;;13.84;nan
21863;BME280;11096;51.338;12.524;2022-09-09T05:29:56;99716.44;;;13.86;nan
21863;BME280;11096;51.338;12.524;2022-09-09T05:32:22;99725.63;;;13.90;nan
21863;BME280;11096;51.338;12.524;2022-09-09T05:34:48;99730.31;;;13.96;nan
21863;BME280;11096;51.338;12.524;2022-09-09T05:37:13;99724.81;;;14.00;nan
21863;BME280;11096;51.338;12.524;2022-09-09T05:39:39;99719.72;;;14.08;nan
21863;BME280;11096;51.338;12.524;2022-09-09T05:42:04;99723.56;;;14.13;nan
21863;BME280;11096;51.338;12.524;2022-09-09T05:44:30;99722.31;;;14.17;nan
21863;BME280;11096;51.338;12.524;2022-09-09T05:46:56;99719.56;;;14.19;nan
21863;BME280;11096;51.338;12.524;2022-09-09T05:49:23;99720.13;;;14.23;nan
21863;BME280;11096;51.338;12.524;2022-09-09T05:51:48;99725.78;;;14.18;nan
21863;BME280;11096;51.338;12.524;2022-09-09T05:54:15;99724.91;;;14.27;nan
21863;BME280;11096;51.338;12.524;2022-09-09T05:56:41;99722.44;;;14.35;nan
21863;BME280;11096;51.338;12.524;2022-09-09T05:59:07;99728.78;;;14.33;nan
21863;BME280;11096;51.338;12.524;2022-09-09T06:01:35;99728.34;;;14.37;nan
21863;BME280;11096;51.338;12.524;2022-09-09T06:04:01;99722.84;;;14.41;nan
21863;BME280;11096;51.338;12.524;2022-09-09T06:06:31;99721.16;;;14.49;nan
21863;BME280;11096;51.338;12.524;2022-09-09T06:08:57;99728.31;;;14.57;nan
21863;BME280;11096;51.338;12.524;2022-09-09T06:11:26;99733.72;;;14.55;nan
21863;BME280;11096;51.338;12.524;2022-09-09T06:13:52;99728.06;;;14.50;nan
21863;BME280;11096;51.338;12.524;2022-09-09T06:16:20;99731.50;;;14.51;nan
21863;BME280;11096;51.338;12.524;2022-09-09T06:18:48;99736.16;;;14.57;nan
21863;BME280;11096;51.338;12.524;2022-09-09T06:21:22;99728.56;;;14.73;nan
21863;BME280;11096;51.338;12.524;2022-09-09T06:23:48;99731.56;;;14.78;nan
21863;BME280;11096;51.338;12.524;2022-09-09T06:26:16;99731.69;;;14.87;nan
21863;BME280;11096;51.338;12.524;2022-09-09T06:28:48;99731.94;;;14.93;nan
21863;BME280;11096;51.338;12.524;2022-09-09T06:31:16;99738.78;;;15.04;nan
21863;BME280;11096;51.338;12.524;2022-09-09T06:33:42;99729.09;;;15.14;nan
21863;BME280;11096;51.338;12.524;2022-09-09T06:36:14;99730.31;;;15.20;nan
21863;BME280;11096;51.338;12.524;2022-09-09T06:38:43;99729.19;;;15.22;nan
21863;BME280;11096;51.338;12.524;2022-09-09T06:41:10;99733.84;;;15.29;nan
21863;BME280;11096;51.338;12.524;2022-09-09T06:43:36;99725.03;;;15.30;nan
21863;BME280;11096;51.338;12.524;2022-09-09T06:46:06;99731.63;;;15.34;nan
21863;BME280;11096;51.338;12.524;2022-09-09T06:48:33;99730.72;;;15.43;nan
21863;BME280;11096;51.338;12.524;2022-09-09T06:51:11;99735.09;;;15.52;nan
21863;BME280;11096;51.338;12.524;2022-09-09T06:53:37;99737.81;;;15.60;nan
21863;BME280;11096;51.338;12.524;2022-09-09T06:58:34;99735.97;;;15.71;nan
21863;BME280;11096;51.338;12.524;2022-09-09T07:01:03;99729.44;;;15.75;nan
21863;BME280;11096;51.338;12.524;2022-09-09T07:03:28;99737.69;;;15.80;nan
21863;BME280;11096;51.338;12.524;2022-09-09T07:05:55;99738.34;;;15.82;nan
21863;BME280;11096;51.338;12.524;2022-09-09T07:08:21;99738.81;;;15.95;nan
21863;BME280;11096;51.338;12.524;2022-09-09T07:10:46;99734.53;;;15.94;nan
21863;BME280;11096;51.338;12.524;2022-09-09T07:13:12;99743.06;;;15.96;nan
21863;BME280;11096;51.338;12.524;2022-09-09T07:15:41;99739.34;;;15.99;nan
21863;BME280;11096;51.338;12.524;2022-09-09T07:18:06;99744.44;;;16.00;nan
21863;BME280;11096;51.338;12.524;2022-09-09T07:20:31;99740.47;;;15.96;nan
21863;BME280;11096;51.338;12.524;2022-09-09T07:22:57;99738.38;;;16.00;nan
21863;BME280;11096;51.338;12.524;2022-09-09T07:25:23;99736.94;;;16.05;nan
21863;BME280;11096;51.338;12.524;2022-09-09T07:27:48;99740.81;;;16.01;nan
21863;BME280;11096;51.338;12.524;2022-09-09T07:30:14;99740.69;;;16.03;nan
21863;BME280;11096;51.338;12.524;2022-09-09T07:32:39;99740.00;;;16.19;nan
21863;BME280;11096;51.338;12.524;2022-09-09T07:35:05;99738.31;;;16.36;nan
21863;BME280;11096;51.338;12.524;2022-09-09T07:37:30;99737.66;;;16.60;nan
21863;BME280;11096;51.338;12.524;2022-09-09T07:39:56;99733.41;;;16.85;nan
21863;BME280;11096;51.338;12.524;2022-09-09T07:42:21;99740.72;;;17.07;nan
21863;BME280;11096;51.338;12.524;2022-09-09T07:44:47;99742.28;;;17.26;nan
21863;BME280;11096;51.338;12.524;2022-09-09T07:47:12;99744.47;;;17.47;nan
21863;BME280;11096;51.338;12.524;2022-09-09T07:49:37;99740.59;;;17.68;nan
21863;BME280;11096;51.338;12.524;2022-09-09T07:52:03;99743.44;;;17.83;nan
21863;BME280;11096;51.338;12.524;2022-09-09T07:54:28;99738.69;;;17.86;nan
21863;BME280;11096;51.338;12.524;2022-09-09T07:56:54;99745.09;;;18.00;nan
21863;BME280;11096;51.338;12.524;2022-09-09T07:59:19;99748.72;;;18.07;nan
21863;BME280;11096;51.338;12.524;2022-09-09T08:01:47;99761.56;;;18.27;nan
21863;BME280;11096;51.338;12.524;2022-09-09T08:04:16;99758.56;;;18.54;nan
21863;BME280;11096;51.338;12.524;2022-09-09T08:06:50;99756.59;;;18.81;nan
21863;BME280;11096;51.338;12.524;2022-09-09T08:09:18;99766.78;;;18.59;nan
21863;BME280;11096;51.338;12.524;2022-09-09T08:11:44;99771.88;;;18.53;nan
21863;BME280;11096;51.338;12.524;2022-09-09T08:14:10;99766.78;;;18.59;nan
21863;BME280;11096;51.338;12.524;2022-09-09T08:16:42;99757.88;;;18.69;nan
21863;BME280;11096;51.338;12.524;2022-09-09T08:19:08;99763.47;;;18.74;nan
21863;BME280;11096;51.338;12.524;2022-09-09T08:21:35;99767.34;;;19.02;nan
21863;BME280;11096;51.338;12.524;2022-09-09T08:24:02;99759.56;;;19.25;nan
21863;BME280;11096;51.338;12.524;2022-09-09T08:26:35;99755.44;;;19.54;nan
21863;BME280;11096;51.338;12.524;2022-09-09T08:29:04;99751.94;;;19.70;nan
21863;BME280;11096;51.338;12.524;2022-09-09T08:33:57;99757.22;;;19.70;nan
21863;BME280;11096;51.338;12.524;2022-09-09T08:36:30;99758.69;;;19.33;nan
21863;BME280;11096;51.338;12.524;2022-09-09T08:38:57;99761.38;;;19.17;nan
21863;BME280;11096;51.338;12.524;2022-09-09T08:44:12;99755.88;;;19.66;nan
21863;BME280;11096;51.338;12.524;2022-09-09T08:52:51;99758.16;;;20.00;nan
21863;BME280;11096;51.338;12.524;2022-09-09T08:55:22;99766.28;;;19.90;nan
21863;BME280;11096;51.338;12.524;2022-09-09T08:57:52;99774.41;;;19.89;nan
21863;BME280;11096;51.338;12.524;2022-09-09T09:00:18;99769.59;;;19.92;nan
21863;BME280;11096;51.338;12.524;2022-09-09T09:09:23;99766.03;;;20.46;nan
21863;BME280;11096;51.338;12.524;2022-09-09T09:11:55;99764.16;;;20.55;nan
21863;BME280;11096;51.338;12.524;2022-09-09T09:14:28;99766.53;;;20.79;nan
21863;BME280;11096;51.338;12.524;2022-09-09T09:17:03;99762.44;;;21.07;nan
21863;BME280;11096;51.338;12.524;2022-09-09T09:19:31;99758.63;;;21.09;nan
21863;BME280;11096;51.338;12.524;2022-09-09T09:23:01;99759.16;;;21.49;nan
21863;BME280;11096;51.338;12.524;2022-09-09T09:25:12;99751.94;;;21.79;nan
21863;BME280;11096;51.338;12.524;2022-09-09T09:30:19;99755.91;;;22.61;nan
21863;BME280;11096;51.338;12.524;2022-09-09T09:32:59;99750.25;;;23.47;nan
21863;BME280;11096;51.338;12.524;2022-09-09T09:35:26;99749.56;;;24.33;nan
21863;BME280;11096;51.338;12.524;2022-09-09T09:37:52;99742.94;;;25.54;nan
21863;BME280;11096;51.338;12.524;2022-09-09T09:40:19;99744.84;;;26.35;nan
21863;BME280;11096;51.338;12.524;2022-09-09T09:42:57;99739.72;;;27.14;nan
21863;BME280;11096;51.338;12.524;2022-09-09T09:48:04;99741.31;;;26.85;nan
21863;BME280;11096;51.338;12.524;2022-09-09T09:50:32;99742.22;;;25.34;nan
21863;BME280;11096;51.338;12.524;2022-09-09T09:53:00;99741.63;;;24.40;nan
21863;BME280;11096;51.338;12.524;2022-09-09T09:55:26;99739.78;;;24.07;nan
21863;BME280;11096;51.338;12.524;2022-09-09T09:58:01;99751.28;;;23.46;nan
21863;BME280;11096;51.338;12.524;2022-09-09T10:00:27;99747.91;;;22.83;nan
21863;BME280;11096;51.338;12.524;2022-09-09T10:02:52;99740.06;;;22.68;nan
21863;BME280;11096;51.338;12.524;2022-09-09T10:05:22;99740.22;;;22.60;nan
21863;BME280;11096;51.338;12.524;2022-09-09T10:13:48;99729.81;;;23.34;nan
21863;BME280;11096;51.338;12.524;2022-09-09T10:35:53;99720.69;;;27.11;nan
21863;BME280;11096;51.338;12.524;2022-09-09T10:49:18;99715.13;;;27.61;nan
21863;BME280;11096;51.338;12.524;2022-09-09T10:51:56;99707.28;;;27.78;nan
21863;BME280;11096;51.338;12.524;2022-09-09T10:57:28;99700.38;;;28.59;nan
21863;BME280;11096;51.338;12.524;2022-09-09T10:59:58;99704.34;;;28.57;nan
21863;BME280;11096;51.338;12.524;2022-09-09T11:02:31;99697.00;;;28.76;nan
21863;BME280;11096;51.338;12.524;2022-09-09T11:07:37;99690.50;;;28.36;nan
21863;BME280;11096;51.338;12.524;2022-09-09T11:10:17;99696.31;;;28.45;nan
21863;BME280;11096;51.338;12.524;2022-09-09T11:12:45;99679.00;;;28.59;nan
21863;BME280;11096;51.338;12.524;2022-09-09T11:16:03;99683.88;;;28.27;nan
21863;BME280;11096;51.338;12.524;2022-09-09T11:18:11;99693.00;;;27.72;nan
21863;BME280;11096;51.338;12.524;2022-09-09T11:20:39;99697.69;;;26.98;nan
21863;BME280;11096;51.338;12.524;2022-09-09T11:23:14;99690.72;;;26.97;nan
21863;BME280;11096;51.338;12.524;2022-09-09T11:25:48;99684.91;;;27.91;nan
21863;BME280;11096;51.338;12.524;2022-09-09T11:28:34;99687.19;;;27.75;nan
21863;BME280;11096;51.338;12.524;2022-09-09T11:36:40;99670.31;;;28.17;nan
21863;BME280;11096;51.338;12.524;2022-09-09T11:41:44;99676.75;;;26.83;nan
21863;BME280;11096;51.338;12.524;2022-09-09T11:44:25;99674.66;;;25.73;nan
21863;BME280;11096;51.338;12.524;2022-09-09T11:46:52;99671.88;;;25.30;nan
21863;BME280;11096;51.338;12.524;2022-09-09T11:49:28;99672.28;;;24.81;nan
21863;BME280;11096;51.338;12.524;2022-09-09T11:51:54;99669.81;;;24.80;nan
21863;BME280;11096;51.338;12.524;2022-09-09T11:56:54;99664.78;;;24.58;nan
21863;BME280;11096;51.338;12.524;2022-09-09T11:59:29;99668.69;;;24.36;nan
21863;BME280;11096;51.338;12.524;2022-09-09T12:01:58;99672.38;;;24.35;nan
21863;BME280;11096;51.338;12.524;2022-09-09T12:06:53;99667.72;;;24.17;nan
21863;BME280;11096;51.338;12.524;2022-09-09T12:14:54;99671.00;;;23.11;nan
21863;BME280;11096;51.338;12.524;2022-09-09T12:17:24;99672.16;;;22.95;nan
21863;BME280;11096;51.338;12.524;2022-09-09T12:20:11;99679.69;;;22.91;nan
21863;BME280;11096;51.338;12.524;2022-09-09T12:22:51;99676.34;;;22.76;nan
21863;BME280;11096;51.338;12.524;2022-09-09T12:25:53;99674.13;;;22.80;nan
21863;BME280;11096;51.338;12.524;2022-09-09T12:28:24;99667.03;;;22.93;nan
21863;BME280;11096;51.338;12.524;2022-09-09T12:31:06;99665.66;;;22.98;nan
21863;BME280;11096;51.338;12.524;2022-09-09T12:33:39;99656.69;;;23.73;nan
21863;BME280;11096;51.338;12.524;2022-09-09T12:36:13;99649.75;;;23.86;nan
21863;BME280;11096;51.338;12.524;2022-09-09T12:38:41;99649.56;;;23.81;nan
21863;BME280;11096;51.338;12.524;2022-09-09T12:41:27;99650.97;;;23.76;nan
21863;BME280;11096;51.338;12.524;2022-09-09T12:44:08;99652.34;;;23.59;nan
21863;BME280;11096;51.338;12.524;2022-09-09T12:46:45;99649.53;;;23.74;nan
21863;BME280;11096;51.338;12.524;2022-09-09T12:49:35;99644.44;;;23.79;nan
21863;BME280;11096;51.338;12.524;2022-09-09T12:52:13;99641.38;;;23.75;nan
21863;BME280;11096;51.338;12.524;2022-09-09T12:54:44;99649.91;;;23.51;nan
21863;BME280;11096;51.338;12.524;2022-09-09T12:57:13;99639.69;;;23.48;nan
21863;BME280;11096;51.338;12.524;2022-09-09T12:59:41;99636.03;;;23.49;nan
21863;BME280;11096;51.338;12.524;2022-09-09T13:02:22;99638.06;;;23.67;nan
21863;BME280;11096;51.338;12.524;2022-09-09T13:04:48;99636.28;;;23.81;nan
21863;BME280;11096;51.338;12.524;2022-09-09T13:07:16;99628.28;;;23.67;nan
21863;BME280;11096;51.338;12.524;2022-09-09T13:09:42;99634.63;;;23.66;nan
21863;BME280;11096;51.338;12.524;2022-09-09T13:12:14;99628.66;;;24.37;nan
21863;BME280;11096;51.338;12.524;2022-09-09T13:14:44;99624.97;;;25.03;nan
21863;BME280;11096;51.338;12.524;2022-09-09T13:17:26;99625.28;;;25.52;nan
21863;BME280;11096;51.338;12.524;2022-09-09T13:19:54;99626.28;;;25.83;nan
21863;BME280;11096;51.338;12.524;2022-09-09T13:22:35;99618.28;;;26.08;nan
21863;BME280;11096;51.338;12.524;2022-09-09T13:27:38;99611.75;;;25.54;nan
21863;BME280;11096;51.338;12.524;2022-09-09T13:30:42;99602.78;;;25.16;nan
21863;BME280;11096;51.338;12.524;2022-09-09T13:35:54;99606.19;;;24.92;nan
21863;BME280;11096;51.338;12.524;2022-09-09T13:38:20;99607.81;;;24.48;nan
21863;BME280;11096;51.338;12.524;2022-09-09T13:41:18;99613.16;;;24.34;nan
21863;BME280;11096;51.338;12.524;2022-09-09T13:43:46;99608.09;;;24.06;nan
21863;BME280;11096;51.338;12.524;2022-09-09T13:46:35;99604.44;;;23.81;nan
21863;BME280;11096;51.338;12.524;2022-09-09T13:49:21;99603.00;;;23.58;nan
21863;BME280;11096;51.338;12.524;2022-09-09T13:51:50;99606.25;;;23.47;nan
21863;BME280;11096;51.338;12.524;2022-09-09T13:54:19;99600.72;;;23.42;nan
21863;BME280;11096;51.338;12.524;2022-09-09T13:56:45;99606.63;;;23.30;nan
21863;BME280;11096;51.338;12.524;2022-09-09T13:59:19;99609.88;;;23.19;nan
21863;BME280;11096;51.338;12.524;2022-09-09T14:01:48;99618.81;;;23.05;nan
21863;BME280;11096;51.338;12.524;2022-09-09T14:04:17;99623.69;;;23.08;nan
21863;BME280;11096;51.338;12.524;2022-09-09T14:06:43;99619.22;;;23.02;nan
21863;BME280;11096;51.338;12.524;2022-09-09T14:09:13;99626.84;;;22.77;nan
21863;BME280;11096;51.338;12.524;2022-09-09T14:11:40;99648.03;;;22.14;nan
21863;BME280;11096;51.338;12.524;2022-09-09T14:14:05;99642.25;;;21.75;nan
21863;BME280;11096;51.338;12.524;2022-09-09T14:16:30;99652.41;;;21.50;nan
21863;BME280;11096;51.338;12.524;2022-09-09T14:18:56;99652.19;;;20.79;nan
21863;BME280;11096;51.338;12.524;2022-09-09T14:21:22;99651.63;;;20.54;nan
21863;BME280;11096;51.338;12.524;2022-09-09T14:23:47;99647.81;;;20.42;nan
21863;BME280;11096;51.338;12.524;2022-09-09T14:26:13;99652.25;;;20.11;nan
21863;BME280;11096;51.338;12.524;2022-09-09T14:28:38;99651.75;;;20.08;nan
21863;BME280;11096;51.338;12.524;2022-09-09T14:31:05;99642.78;;;20.17;nan
21863;BME280;11096;51.338;12.524;2022-09-09T14:33:31;99640.03;;;20.10;nan
21863;BME280;11096;51.338;12.524;2022-09-09T14:35:57;99642.06;;;20.23;nan
21863;BME280;11096;51.338;12.524;2022-09-09T14:38:23;99638.16;;;20.49;nan
21863;BME280;11096;51.338;12.524;2022-09-09T14:40:49;99642.53;;;20.71;nan
21863;BME280;11096;51.338;12.524;2022-09-09T14:43:14;99636.34;;;20.79;nan
21863;BME280;11096;51.338;12.524;2022-09-09T14:45:39;99639.97;;;20.93;nan
21863;BME280;11096;51.338;12.524;2022-09-09T14:48:05;99623.38;;;20.99;nan
21863;BME280;11096;51.338;12.524;2022-09-09T14:50:30;99629.78;;;21.11;nan
21863;BME280;11096;51.338;12.524;2022-09-09T14:52:55;99625.53;;;21.10;nan
21863;BME280;11096;51.338;12.524;2022-09-09T14:55:21;99630.19;;;21.08;nan
21863;BME280;11096;51.338;12.524;2022-09-09T14:57:46;99632.34;;;21.19;nan
21863;BME280;11096;51.338;12.524;2022-09-09T15:00:12;99633.84;;;21.29;nan
21863;BME280;11096;51.338;12.524;2022-09-09T15:02:38;99627.75;;;21.28;nan
21863;BME280;11096;51.338;12.524;2022-09-09T15:05:04;99622.22;;;21.23;nan
21863;BME280;11096;51.338;12.524;2022-09-09T15:07:29;99620.53;;;21.37;nan
21863;BME280;11096;51.338;12.524;2022-09-09T15:09:57;99613.50;;;21.44;nan
21863;BME280;11096;51.338;12.524;2022-09-09T15:12:23;99623.53;;;21.49;nan
21863;BME280;11096;51.338;12.524;2022-09-09T15:14:48;99625.06;;;21.43;nan
21863;BME280;11096;51.338;12.524;2022-09-09T15:17:15;99627.97;;;21.48;nan
21863;BME280;11096;51.338;12.524;2022-09-09T15:19:40;99631.16;;;21.43;nan
21863;BME280;11096;51.338;12.524;2022-09-09T15:22:07;99635.84;;;21.41;nan
21863;BME280;11096;51.338;12.524;2022-09-09T15:24:33;99627.78;;;21.50;nan
21863;BME280;11096;51.338;12.524;2022-09-09T15:27:00;99628.75;;;21.42;nan
21863;BME280;11096;51.338;12.524;2022-09-09T15:29:25;99621.78;;;21.41;nan
21863;BME280;11096;51.338;12.524;2022-09-09T15:31:51;99627.31;;;21.25;nan